sensor_id;sensor_type;location;lat;lon;timestamp;temperature;humidity
14154;DHT22;7157;53.144;7.570;2023-12-20T00:07:15;6.45;115.10
14154;DHT22;7157;53.144;7.570;2023-12-20T00:17:18;6.41;114.54
14154;DHT22;7157;53.144;7.570;2023-12-20T00:27:23;6.23;114.17
14154;DHT22;7157;53.144;7.570;2023-12-20T00:37:25;6.23;113.89
14154;DHT22;7157;53.144;7.570;2023-12-20T00:47:30;6.19;114.48
14154;DHT22;7157;53.144;7.570;2023-12-20T00:57:33;6.01;114.45
14154;DHT22;7157;53.144;7.570;2023-12-20T01:07:37;5.94;114.29
14154;DHT22;7157;53.144;7.570;2023-12-20T01:17:40;6.02;114.45
14154;DHT22;7157;53.144;7.570;2023-12-20T01:27:44;6.11;114.04
14154;DHT22;7157;53.144;7.570;2023-12-20T01:37:47;6.20;113.90
14154;DHT22;7157;53.144;7.570;2023-12-20T01:47:52;6.15;113.22
14154;DHT22;7157;53.144;7.570;2023-12-20T01:57:55;6.28;112.63
14154;DHT22;7157;53.144;7.570;2023-12-20T02:08:00;6.24;112.52
14154;DHT22;7157;53.144;7.570;2023-12-20T02:18:04;6.46;112.36
14154;DHT22;7157;53.144;7.570;2023-12-20T02:28:08;6.53;111.79
14154;DHT22;7157;53.144;7.570;2023-12-20T02:38:11;6.43;112.68
14154;DHT22;7157;53.144;7.570;2023-12-20T02:48:15;6.43;113.74
14154;DHT22;7157;53.144;7.570;2023-12-20T02:58:18;6.53;112.63
14154;DHT22;7157;53.144;7.570;2023-12-20T03:08:22;6.48;111.06
14154;DHT22;7157;53.144;7.570;2023-12-20T03:18:28;6.61;109.20
14154;DHT22;7157;53.144;7.570;2023-12-20T03:28:32;6.53;109.22
14154;DHT22;7157;53.144;7.570;2023-12-20T03:38:35;6.61;110.32
14154;DHT22;7157;53.144;7.570;2023-12-20T03:48:39;6.52;110.68
14154;DHT22;7157;53.144;7.570;2023-12-20T03:58:42;6.52;110.42
14154;DHT22;7157;53.144;7.570;2023-12-20T04:08:46;6.61;111.62
14154;DHT22;7157;53.144;7.570;2023-12-20T04:18:49;6.58;111.91
14154;DHT22;7157;53.144;7.570;2023-12-20T04:28:53;6.59;111.97
14154;DHT22;7157;53.144;7.570;2023-12-20T04:38:56;6.54;111.68
14154;DHT22;7157;53.144;7.570;2023-12-20T04:49:00;6.66;110.74
14154;DHT22;7157;53.144;7.570;2023-12-20T04:59:04;6.76;111.21
14154;DHT22;7157;53.144;7.570;2023-12-20T05:09:08;6.76;111.74
14154;DHT22;7157;53.144;7.570;2023-12-20T05:19:11;6.75;111.77
14154;DHT22;7157;53.144;7.570;2023-12-20T05:29:16;6.75;111.32
14154;DHT22;7157;53.144;7.570;2023-12-20T05:39:19;6.68;112.66
14154;DHT22;7157;53.144;7.570;2023-12-20T05:49:23;6.57;114.39
14154;DHT22;7157;53.144;7.570;2023-12-20T05:59:26;6.66;113.97
14154;DHT22;7157;53.144;7.570;2023-12-20T06:09:31;6.75;113.64
14154;DHT22;7157;53.144;7.570;2023-12-20T06:19:33;6.86;114.39
14154;DHT22;7157;53.144;7.570;2023-12-20T06:29:38;6.68;116.23
14154;DHT22;7157;53.144;7.570;2023-12-20T06:39:42;6.74;116.10
14154;DHT22;7157;53.144;7.570;2023-12-20T06:49:46;6.80;116.40
14154;DHT22;7157;53.144;7.570;2023-12-20T06:59:49;6.86;116.23
14154;DHT22;7157;53.144;7.570;2023-12-20T07:09:55;6.84;116.31
14154;DHT22;7157;53.144;7.570;2023-12-20T07:19:57;6.94;116.07
14154;DHT22;7157;53.144;7.570;2023-12-20T07:30:03;6.96;116.52
14154;DHT22;7157;53.144;7.570;2023-12-20T07:40:07;7.07;116.06
14154;DHT22;7157;53.144;7.570;2023-12-20T07:50:12;7.09;116.51
14154;DHT22;7157;53.144;7.570;2023-12-20T08:00:15;7.05;116.99
14154;DHT22;7157;53.144;7.570;2023-12-20T08:10:20;7.11;117.18
14154;DHT22;7157;53.144;7.570;2023-12-20T08:20:22;7.19;117.01
14154;DHT22;7157;53.144;7.570;2023-12-20T08:30:41;7.28;115.43
14154;DHT22;7157;53.144;7.570;2023-12-20T08:40:44;7.32;115.93
14154;DHT22;7157;53.144;7.570;2023-12-20T08:50:49;7.44;115.76
14154;DHT22;7157;53.144;7.570;2023-12-20T09:00:53;7.61;114.09
14154;DHT22;7157;53.144;7.570;2023-12-20T09:10:57;7.68;112.78
14154;DHT22;7157;53.144;7.570;2023-12-20T09:21:01;6.70;112.78
14154;DHT22;7157;53.144;7.570;2023-12-20T09:31:05;6.24;115.19
14154;DHT22;7157;53.144;7.570;2023-12-20T09:41:09;6.09;115.86
14154;DHT22;7157;53.144;7.570;2023-12-20T09:51:13;6.10;116.63
14154;DHT22;7157;53.144;7.570;2023-12-20T10:01:18;6.12;113.46
14154;DHT22;7157;53.144;7.570;2023-12-20T10:11:22;6.36;113.89
14154;DHT22;7157;53.144;7.570;2023-12-20T10:21:25;6.35;113.58
14154;DHT22;7157;53.144;7.570;2023-12-20T10:31:31;6.79;112.64
14154;DHT22;7157;53.144;7.570;2023-12-20T10:41:35;6.51;111.26
14154;DHT22;7157;53.144;7.570;2023-12-20T10:51:46;6.90;109.51
14154;DHT22;7157;53.144;7.570;2023-12-20T11:01:50;7.22;108.03
14154;DHT22;7157;53.144;7.570;2023-12-20T11:12:02;7.78;104.78
14154;DHT22;7157;53.144;7.570;2023-12-20T11:22:07;8.07;103.41
14154;DHT22;7157;53.144;7.570;2023-12-20T11:32:29;7.89;102.44
14154;DHT22;7157;53.144;7.570;2023-12-20T11:42:33;8.36;103.57
14154;DHT22;7157;53.144;7.570;2023-12-20T11:52:37;8.20;99.65
14154;DHT22;7157;53.144;7.570;2023-12-20T12:02:40;8.39;99.09
14154;DHT22;7157;53.144;7.570;2023-12-20T12:12:46;8.51;96.73
14154;DHT22;7157;53.144;7.570;2023-12-20T12:22:57;9.08;95.55
14154;DHT22;7157;53.144;7.570;2023-12-20T12:33:03;8.90;94.52
14154;DHT22;7157;53.144;7.570;2023-12-20T12:43:06;9.35;89.80
14154;DHT22;7157;53.144;7.570;2023-12-20T12:53:10;8.83;94.56
14154;DHT22;7157;53.144;7.570;2023-12-20T13:03:13;7.91;96.07
14154;DHT22;7157;53.144;7.570;2023-12-20T13:13:17;7.89;96.74
14154;DHT22;7157;53.144;7.570;2023-12-20T13:23:20;8.01;96.99
14154;DHT22;7157;53.144;7.570;2023-12-20T13:33:25;8.17;94.87
14154;DHT22;7157;53.144;7.570;2023-12-20T13:43:28;8.29;94.75
14154;DHT22;7157;53.144;7.570;2023-12-20T13:53:32;7.93;95.07
14154;DHT22;7157;53.144;7.570;2023-12-20T14:03:36;8.02;95.64
14154;DHT22;7157;53.144;7.570;2023-12-20T14:13:40;7.84;101.77
14154;DHT22;7157;53.144;7.570;2023-12-20T14:23:43;7.54;105.72
14154;DHT22;7157;53.144;7.570;2023-12-20T14:33:49;7.34;108.61
14154;DHT22;7157;53.144;7.570;2023-12-20T14:43:52;7.35;108.80
14154;DHT22;7157;53.144;7.570;2023-12-20T14:53:56;7.34;107.08
14154;DHT22;7157;53.144;7.570;2023-12-20T15:03:59;7.43;106.21
14154;DHT22;7157;53.144;7.570;2023-12-20T15:14:04;7.22;105.07
14154;DHT22;7157;53.144;7.570;2023-12-20T15:24:09;6.72;109.36
14154;DHT22;7157;53.144;7.570;2023-12-20T15:34:17;6.39;113.77
14154;DHT22;7157;53.144;7.570;2023-12-20T15:44:21;6.35;114.53
14154;DHT22;7157;53.144;7.570;2023-12-20T15:54:25;6.28;115.52
14154;DHT22;7157;53.144;7.570;2023-12-20T16:04:28;6.34;115.88
14154;DHT22;7157;53.144;7.570;2023-12-20T16:14:32;6.38;115.69
14154;DHT22;7157;53.144;7.570;2023-12-20T16:24:35;6.38;115.59
14154;DHT22;7157;53.144;7.570;2023-12-20T16:34:39;6.37;115.73
14154;DHT22;7157;53.144;7.570;2023-12-20T16:44:42;6.44;116.22
14154;DHT22;7157;53.144;7.570;2023-12-20T16:54:46;6.51;116.60
14154;DHT22;7157;53.144;7.570;2023-12-20T17:04:49;6.58;116.91
14154;DHT22;7157;53.144;7.570;2023-12-20T17:14:53;6.55;117.30
14154;DHT22;7157;53.144;7.570;2023-12-20T17:24:56;6.63;117.46
14154;DHT22;7157;53.144;7.570;2023-12-20T17:35:00;6.69;117.82
14154;DHT22;7157;53.144;7.570;2023-12-20T17:45:04;6.71;117.83
14154;DHT22;7157;53.144;7.570;2023-12-20T17:55:08;6.84;117.79
14154;DHT22;7157;53.144;7.570;2023-12-20T18:05:11;6.88;118.40
14154;DHT22;7157;53.144;7.570;2023-12-20T18:15:16;7.13;118.23
14154;DHT22;7157;53.144;7.570;2023-12-20T18:25:20;7.11;118.63
14154;DHT22;7157;53.144;7.570;2023-12-20T18:35:24;7.30;118.67
14154;DHT22;7157;53.144;7.570;2023-12-20T18:45:28;7.49;118.92
14154;DHT22;7157;53.144;7.570;2023-12-20T18:55:33;7.63;118.99
14154;DHT22;7157;53.144;7.570;2023-12-20T19:05:36;7.81;118.99
14154;DHT22;7157;53.144;7.570;2023-12-20T19:15:42;7.88;118.99
14154;DHT22;7157;53.144;7.570;2023-12-20T19:25:48;7.96;118.99
14154;DHT22;7157;53.144;7.570;2023-12-20T19:35:52;8.00;118.99
14154;DHT22;7157;53.144;7.570;2023-12-20T19:45:55;8.13;118.99
14154;DHT22;7157;53.144;7.570;2023-12-20T19:55:59;8.23;118.99
14154;DHT22;7157;53.144;7.570;2023-12-20T20:06:03;8.41;118.99
14154;DHT22;7157;53.144;7.570;2023-12-20T20:16:08;8.43;118.99
14154;DHT22;7157;53.144;7.570;2023-12-20T20:26:10;8.57;118.99
14154;DHT22;7157;53.144;7.570;2023-12-20T20:36:15;8.61;118.99
14154;DHT22;7157;53.144;7.570;2023-12-20T20:46:19;8.68;118.99
14154;DHT22;7157;53.144;7.570;2023-12-20T20:56:27;8.74;118.99
14154;DHT22;7157;53.144;7.570;2023-12-20T21:06:30;8.75;118.99
14154;DHT22;7157;53.144;7.570;2023-12-20T21:16:36;8.79;118.99
14154;DHT22;7157;53.144;7.570;2023-12-20T21:26:39;9.01;118.99
14154;DHT22;7157;53.144;7.570;2023-12-20T21:36:43;9.14;118.99
14154;DHT22;7157;53.144;7.570;2023-12-20T21:46:46;9.16;118.99
14154;DHT22;7157;53.144;7.570;2023-12-20T21:56:50;9.12;118.99
14154;DHT22;7157;53.144;7.570;2023-12-20T22:06:55;9.26;118.99
14154;DHT22;7157;53.144;7.570;2023-12-20T22:16:59;9.34;118.99
14154;DHT22;7157;53.144;7.570;2023-12-20T22:27:03;9.31;118.99
14154;DHT22;7157;53.144;7.570;2023-12-20T22:37:07;9.38;118.99
14154;DHT22;7157;53.144;7.570;2023-12-20T22:47:10;9.33;118.99
14154;DHT22;7157;53.144;7.570;2023-12-20T22:57:24;9.37;118.99
14154;DHT22;7157;53.144;7.570;2023-12-20T23:07:34;9.45;118.99
14154;DHT22;7157;53.144;7.570;2023-12-20T23:17:39;9.34;118.99
14154;DHT22;7157;53.144;7.570;2023-12-20T23:27:43;9.45;118.99
14154;DHT22;7157;53.144;7.570;2023-12-20T23:37:49;9.50;118.99
14154;DHT22;7157;53.144;7.570;2023-12-20T23:47:52;9.47;118.99
14154;DHT22;7157;53.144;7.570;2023-12-20T23:57:56;9.45;118.99
